Main page
METAR-TAF:

METAR-TAF

Airports :

F 7 Såtenäs

Såtenäs, Sweden

latitude: 58-26N, longitude: 012-42E, elevation: 54 m

Current weather observation

The report was made 23 minutes ago, at 16:20 UTC
Wind 9 kt from the North/Northeast
Temperature 16°C
Humidity 88%
Pressure 1013 hPa
Visibility 10 km or more

METAR: ESIB 221620Z AUTO 02009KT 9999 BKN009/// OVC012/// 16/14 Q1013

Time: 18:43 (16:43 UTC)

Forecast

The report was made 8 hours and 13 minutes ago, at 08:30 UTC
Forecast valid from 22 at 09 UTC to 22 at 15 UTC
Wind 5 kt from the West/Northwest
Visibility 10 km or more
Few clouds at a height of 1000 ft
Broken clouds at a height of 5000 ft
Probability 30%
from 22 at 13 UTC to 22 at 15 UTC
Broken clouds at a height of 2500 ft, Towering cumulus.
light rain showers

TAF: ESIB 220830Z 2209/2215 29005KT 9999 FEW010 BKN050 PROB30 2213/2215 -SHRA BKN025TCU RMK MIL

Weather observations and forecasts of more than 4000 airports (METAR and TAF reports).

The available stations are represented by yellow and red dots on the map.

Hover mouse over dot to see the name of the station.

Then click to see weather observations and forecasts.

To change the map : click on the green buttons with a black cross to zoom in, on the green button with a dash to zoom out, or on the green arrows for adjacent maps.


METAR-TAF: